createdAt,value
2023-05-18T00:02:16.213Z,90.21
2023-05-18T00:04:47.239Z,90.28
2023-05-18T00:07:15.576Z,90.28
2023-05-18T00:09:43.102Z,90.22
2023-05-18T00:12:11.048Z,90.20
2023-05-18T00:14:38.551Z,90.16
2023-05-18T00:17:06.129Z,90.11
2023-05-18T00:19:33.648Z,90.13
2023-05-18T00:22:02.305Z,90.19
2023-05-18T00:24:29.932Z,90.22
2023-05-18T00:26:57.524Z,90.25
2023-05-18T00:29:25.390Z,90.29
2023-05-18T00:31:53.200Z,90.29
2023-05-18T00:34:20.793Z,90.30
2023-05-18T00:36:48.350Z,90.28
2023-05-18T00:39:16.017Z,90.23
2023-05-18T00:41:43.548Z,90.19
2023-05-18T00:44:11.416Z,90.20
2023-05-18T00:46:39.083Z,90.19
2023-05-18T00:49:06.785Z,90.19
2023-05-18T00:51:34.404Z,90.10
2023-05-18T00:54:02.476Z,90.11
2023-05-18T00:56:34.324Z,90.15
2023-05-18T00:59:02.299Z,90.20
2023-05-18T01:01:29.974Z,90.22
2023-05-18T01:03:57.714Z,90.20
2023-05-18T01:06:25.583Z,90.21
2023-05-18T01:08:53.557Z,90.22
2023-05-18T01:11:21.217Z,90.34
2023-05-18T01:13:49.017Z,90.33
2023-05-18T01:16:16.696Z,90.28
2023-05-18T01:18:44.920Z,90.27
2023-05-18T01:21:13.629Z,90.27
2023-05-18T01:23:45.035Z,90.30
2023-05-18T01:26:13.160Z,90.31
2023-05-18T01:28:40.694Z,90.32
2023-05-18T01:31:08.288Z,90.35
2023-05-18T01:33:35.943Z,90.40
2023-05-18T01:36:03.533Z,90.39
2023-05-18T01:38:31.036Z,90.40
2023-05-18T01:40:59.765Z,90.46
2023-05-18T01:43:27.282Z,90.45
2023-05-18T01:45:54.803Z,90.45
2023-05-18T01:48:22.454Z,90.40
2023-05-18T01:50:50.047Z,90.40
2023-05-18T01:53:17.574Z,90.40
2023-05-18T01:55:45.124Z,90.33
2023-05-18T01:58:12.678Z,90.38
2023-05-18T02:00:40.154Z,90.38
2023-05-18T02:03:07.881Z,90.37
2023-05-18T02:05:35.469Z,90.33
2023-05-18T02:08:03.418Z,90.23
2023-05-18T02:10:31.221Z,90.19
2023-05-18T02:12:58.809Z,90.20
2023-05-18T02:15:26.492Z,90.16
2023-05-18T02:17:58.285Z,90.19
2023-05-18T02:20:27.397Z,90.19
2023-05-18T02:22:56.182Z,90.06
2023-05-18T02:25:25.870Z,89.99
2023-05-18T02:27:53.701Z,89.96
2023-05-18T02:30:21.231Z,90.08
2023-05-18T02:32:49.449Z,90.09
2023-05-18T02:35:17.635Z,90.10
2023-05-18T02:37:45.500Z,90.11
2023-05-18T02:40:13.584Z,90.11
2023-05-18T02:42:41.199Z,90.09
2023-05-18T02:45:08.758Z,90.05
2023-05-18T02:47:36.569Z,90.04
2023-05-18T02:50:04.138Z,90.10
2023-05-18T02:52:31.718Z,90.18
2023-05-18T02:54:59.236Z,90.23
2023-05-18T02:57:27.584Z,90.29
2023-05-18T02:59:55.066Z,90.24
2023-05-18T03:02:23.862Z,90.30
2023-05-18T03:04:54.116Z,90.30
2023-05-18T03:07:21.656Z,90.37
2023-05-18T03:09:49.236Z,90.40
2023-05-18T03:12:16.723Z,90.42
2023-05-18T03:14:44.234Z,90.42
2023-05-18T03:17:12.006Z,90.49
2023-05-18T03:19:39.639Z,90.58
2023-05-18T03:22:07.148Z,90.58
2023-05-18T03:24:40.269Z,90.63
2023-05-18T03:27:07.877Z,90.61
2023-05-18T03:29:35.598Z,90.70
2023-05-18T03:32:03.336Z,90.70
2023-05-18T03:34:30.945Z,90.78
2023-05-18T03:36:59.887Z,90.80
2023-05-18T03:39:27.539Z,90.82
2023-05-18T03:41:55.054Z,90.80
2023-05-18T03:44:22.595Z,90.80
2023-05-18T03:46:50.329Z,90.71
2023-05-18T03:49:17.989Z,90.69
2023-05-18T03:51:45.521Z,90.77
2023-05-18T03:54:13.190Z,90.98
2023-05-18T03:56:41.103Z,90.71
2023-05-18T03:59:08.871Z,90.67
2023-05-18T04:01:36.535Z,90.64
2023-05-18T04:04:04.233Z,90.60
2023-05-18T04:06:31.763Z,90.65
2023-05-18T04:09:04.679Z,90.60
2023-05-18T04:11:32.403Z,90.60
2023-05-18T04:14:01.076Z,90.57
2023-05-18T04:16:29.270Z,90.47
2023-05-18T04:18:56.952Z,90.50
2023-05-18T04:21:24.516Z,90.42
2023-05-18T04:23:52.083Z,90.43
2023-05-18T04:26:20.205Z,90.50
2023-05-18T04:28:47.965Z,90.50
2023-05-18T04:31:17.907Z,90.50
2023-05-18T04:33:47.424Z,90.50
2023-05-18T04:36:15.152Z,90.50
2023-05-18T04:38:43.009Z,90.43
2023-05-18T04:41:10.583Z,90.47
2023-05-18T04:43:38.162Z,90.50
2023-05-18T04:46:07.536Z,90.50
2023-05-18T04:48:36.341Z,90.47
2023-05-18T04:51:04.920Z,90.41
2023-05-18T04:53:33.671Z,90.40
2023-05-18T04:56:01.278Z,90.40
2023-05-18T04:58:30.625Z,90.40
2023-05-18T05:00:58.432Z,90.36
2023-05-18T05:03:26.168Z,90.30
2023-05-18T05:05:53.802Z,90.19
2023-05-18T05:08:21.746Z,90.09
2023-05-18T05:10:49.320Z,89.89
2023-05-18T05:13:16.831Z,89.73
2023-05-18T05:15:44.528Z,89.61
2023-05-18T05:18:12.126Z,89.68
2023-05-18T05:20:39.948Z,89.66
2023-05-18T05:23:07.651Z,89.49
2023-05-18T05:25:35.214Z,89.34
2023-05-18T05:28:02.754Z,89.52
2023-05-18T05:30:30.515Z,89.66
2023-05-18T05:32:58.087Z,89.73
2023-05-18T05:35:25.632Z,89.79
2023-05-18T05:37:53.169Z,89.68
2023-05-18T05:40:20.939Z,89.75
2023-05-18T05:42:48.537Z,89.79
2023-05-18T05:45:16.210Z,89.84
2023-05-18T05:47:43.794Z,89.53
2023-05-18T05:50:11.500Z,88.96
2023-05-18T05:52:39.025Z,88.93
2023-05-18T05:55:06.857Z,89.20
2023-05-18T05:57:34.733Z,88.72
2023-05-18T06:00:03.275Z,88.68
2023-05-18T06:02:31.058Z,88.65
2023-05-18T06:04:58.823Z,88.79
2023-05-18T06:07:26.348Z,88.81
2023-05-18T06:09:53.841Z,88.88
2023-05-18T06:12:21.497Z,88.87
2023-05-18T06:14:49.171Z,89.02
2023-05-18T06:17:16.708Z,89.01
2023-05-18T06:19:44.223Z,88.98
2023-05-18T06:22:11.991Z,88.80
2023-05-18T06:24:39.531Z,88.64
2023-05-18T06:27:07.163Z,88.66
2023-05-18T06:29:34.731Z,88.73
2023-05-18T06:32:02.292Z,88.77
2023-05-18T06:34:29.902Z,89.02
2023-05-18T06:36:58.612Z,89.10
2023-05-18T06:39:26.339Z,89.25
2023-05-18T06:41:53.971Z,89.18
2023-05-18T06:44:21.745Z,89.13
2023-05-18T06:46:49.313Z,89.34
2023-05-18T06:49:16.858Z,89.29
2023-05-18T06:51:45.837Z,89.19
2023-05-18T06:54:13.606Z,89.33
2023-05-18T06:56:41.573Z,89.36
2023-05-18T06:59:09.363Z,89.15
2023-05-18T07:01:36.976Z,88.30
2023-05-18T07:04:04.766Z,88.02
2023-05-18T07:06:32.491Z,87.49
2023-05-18T07:09:00.045Z,87.39
2023-05-18T07:11:29.495Z,87.34
2023-05-18T07:13:57.555Z,87.76
2023-05-18T07:16:25.102Z,87.80
2023-05-18T07:18:52.988Z,87.93
2023-05-18T07:21:20.711Z,87.68
2023-05-18T07:23:48.498Z,88.26
2023-05-18T07:26:16.164Z,88.43
2023-05-18T07:28:43.673Z,88.59
2023-05-18T07:31:11.299Z,88.82
2023-05-18T07:33:41.042Z,88.89
2023-05-18T07:36:08.796Z,88.95
2023-05-18T07:38:36.517Z,88.76
2023-05-18T07:41:04.036Z,88.50
2023-05-18T07:43:31.584Z,88.72
2023-05-18T07:45:59.143Z,88.53
2023-05-18T07:48:26.645Z,88.20
2023-05-18T07:50:54.199Z,88.32
2023-05-18T07:53:21.759Z,88.20
2023-05-18T07:55:50.129Z,88.04
2023-05-18T07:58:17.794Z,87.93
2023-05-18T08:00:45.448Z,88.04
2023-05-18T08:03:13.133Z,87.83
2023-05-18T08:05:40.847Z,87.85
2023-05-18T08:08:11.989Z,87.56
2023-05-18T08:10:39.533Z,88.19
2023-05-18T08:13:07.180Z,88.32
2023-05-18T08:15:34.684Z,88.58
2023-05-18T08:18:02.235Z,87.96
2023-05-18T08:20:30.278Z,88.00
2023-05-18T08:22:57.795Z,87.69
2023-05-18T08:25:25.669Z,87.67
2023-05-18T08:27:53.326Z,87.66
2023-05-18T08:30:21.759Z,87.36
2023-05-18T08:32:49.641Z,86.94
2023-05-18T08:35:17.669Z,87.46
2023-05-18T08:37:46.214Z,87.44
2023-05-18T08:40:14.748Z,87.64
2023-05-18T08:42:49.944Z,87.62
2023-05-18T08:45:18.355Z,87.13
2023-05-18T08:47:45.964Z,86.75
2023-05-18T08:50:15.960Z,87.25
2023-05-18T08:52:43.798Z,87.57
2023-05-18T08:55:12.503Z,87.20
2023-05-18T08:57:40.121Z,87.09
2023-05-18T09:00:07.980Z,86.79
2023-05-18T09:02:35.960Z,86.38
2023-05-18T09:05:03.610Z,86.06
2023-05-18T09:07:31.281Z,86.69
2023-05-18T09:09:58.796Z,86.39
2023-05-18T09:12:26.360Z,86.32
2023-05-18T09:14:53.898Z,85.91
2023-05-18T09:17:24.058Z,86.09
2023-05-18T09:19:51.697Z,85.70
2023-05-18T09:22:19.204Z,85.42
2023-05-18T09:24:47.516Z,85.02
2023-05-18T09:27:15.238Z,85.70
2023-05-18T09:29:42.769Z,86.39
2023-05-18T09:32:10.520Z,85.81
2023-05-18T09:34:38.144Z,85.39
2023-05-18T09:37:05.931Z,85.65
2023-05-18T09:39:33.489Z,85.62
2023-05-18T09:42:00.969Z,85.79
2023-05-18T09:44:28.450Z,85.99
2023-05-18T09:46:56.069Z,85.71
2023-05-18T09:49:24.913Z,85.28
2023-05-18T09:51:53.552Z,85.36
2023-05-18T09:54:23.072Z,85.73
2023-05-18T09:57:02.369Z,86.41
2023-05-18T09:59:37.621Z,86.79
2023-05-18T10:02:06.126Z,86.94
2023-05-18T10:04:33.761Z,85.34
2023-05-18T10:07:02.134Z,85.01
2023-05-18T10:09:29.697Z,85.62
2023-05-18T10:11:57.174Z,85.47
2023-05-18T10:14:25.580Z,85.12
2023-05-18T10:17:00.361Z,84.83
2023-05-18T10:19:35.087Z,85.38
2023-05-18T10:22:02.576Z,85.65
2023-05-18T10:24:30.090Z,85.60
2023-05-18T10:26:57.758Z,85.35
2023-05-18T10:29:25.442Z,85.20
2023-05-18T10:31:53.003Z,85.28
2023-05-18T10:34:22.993Z,85.32
2023-05-18T10:36:50.824Z,85.78
2023-05-18T10:39:18.387Z,85.50
2023-05-18T10:41:46.084Z,85.43
2023-05-18T10:44:13.586Z,85.20
2023-05-18T10:46:41.130Z,85.47
2023-05-18T10:49:13.360Z,85.50
2023-05-18T10:51:40.927Z,85.99
2023-05-18T10:54:08.507Z,85.39
2023-05-18T10:56:37.773Z,85.82
2023-05-18T10:59:05.489Z,85.53
2023-05-18T11:01:33.072Z,86.12
2023-05-18T11:04:01.379Z,86.53
2023-05-18T11:06:28.897Z,86.36
2023-05-18T11:08:56.459Z,86.03
2023-05-18T11:11:26.528Z,86.12
2023-05-18T11:13:54.387Z,84.60
2023-05-18T11:16:22.178Z,84.78
2023-05-18T11:18:49.954Z,85.22
2023-05-18T11:21:17.579Z,85.34
2023-05-18T11:23:45.071Z,85.84
2023-05-18T11:26:12.638Z,85.79
2023-05-18T11:28:40.256Z,85.20
2023-05-18T11:31:07.854Z,85.15
2023-05-18T11:33:36.646Z,84.89
2023-05-18T11:36:04.598Z,85.16
2023-05-18T11:38:32.527Z,85.45
2023-05-18T11:41:00.888Z,84.94
2023-05-18T11:43:28.582Z,84.84
2023-05-18T11:45:58.764Z,84.82
2023-05-18T11:48:27.004Z,84.61
2023-05-18T11:50:55.156Z,84.84
2023-05-18T11:53:22.675Z,85.00
2023-05-18T11:55:50.317Z,84.88
2023-05-18T11:58:20.459Z,85.06
2023-05-18T12:00:47.961Z,85.23
2023-05-18T12:03:16.725Z,85.59
2023-05-18T12:05:49.185Z,85.70
2023-05-18T12:08:16.732Z,85.77
2023-05-18T12:10:44.285Z,85.95
2023-05-18T12:13:11.758Z,85.94
2023-05-18T12:15:39.232Z,85.96
2023-05-18T12:18:06.837Z,85.94
2023-05-18T12:20:35.668Z,85.91
2023-05-18T12:23:03.392Z,86.25
2023-05-18T12:25:31.110Z,86.46
2023-05-18T12:27:58.910Z,86.59
2023-05-18T12:30:27.119Z,86.36
2023-05-18T12:32:55.009Z,86.33
2023-05-18T12:35:22.593Z,86.47
2023-05-18T12:37:50.158Z,86.63
2023-05-18T12:40:17.726Z,86.54
2023-05-18T12:42:45.370Z,86.81
2023-05-18T12:45:12.850Z,86.92
2023-05-18T12:47:40.419Z,86.92
2023-05-18T12:50:07.945Z,86.90
2023-05-18T12:52:35.451Z,87.25
2023-05-18T12:55:03.612Z,86.83
2023-05-18T12:57:33.095Z,86.70
2023-05-18T13:00:00.648Z,86.62
2023-05-18T13:02:28.570Z,86.59
2023-05-18T13:04:56.616Z,86.87
2023-05-18T13:07:24.130Z,86.90
2023-05-18T13:09:51.654Z,86.79
2023-05-18T13:12:19.163Z,87.18
2023-05-18T13:14:47.093Z,87.27
2023-05-18T13:17:15.109Z,87.35
2023-05-18T13:19:42.766Z,87.68
2023-05-18T13:22:10.674Z,87.77
2023-05-18T13:24:39.176Z,87.51
2023-05-18T13:27:06.664Z,87.35
2023-05-18T13:29:34.584Z,87.56
2023-05-18T13:32:02.176Z,87.56
2023-05-18T13:34:29.961Z,87.64
2023-05-18T13:36:57.465Z,87.66
2023-05-18T13:39:25.043Z,87.72
2023-05-18T13:41:52.566Z,87.80
2023-05-18T13:44:20.204Z,87.80
2023-05-18T13:46:47.727Z,87.96
2023-05-18T13:49:15.247Z,87.86
2023-05-18T13:51:42.773Z,87.88
2023-05-18T13:54:10.526Z,87.93
2023-05-18T13:56:38.107Z,87.99
2023-05-18T13:59:06.038Z,87.81
2023-05-18T14:01:34.669Z,87.52
2023-05-18T14:04:02.589Z,87.63
2023-05-18T14:06:30.135Z,87.77
2023-05-18T14:08:57.686Z,87.89
2023-05-18T14:11:25.312Z,87.75
2023-05-18T14:13:52.827Z,87.65
2023-05-18T14:16:20.470Z,87.69
2023-05-18T14:18:48.088Z,87.82
2023-05-18T14:21:15.655Z,87.96
2023-05-18T14:23:43.249Z,88.05
2023-05-18T14:26:10.917Z,88.07
2023-05-18T14:28:38.411Z,88.05
2023-05-18T14:31:06.109Z,88.19
2023-05-18T14:33:33.638Z,88.21
2023-05-18T14:36:01.830Z,88.28
2023-05-18T14:38:29.347Z,88.60
2023-05-18T14:40:56.824Z,88.66
2023-05-18T14:43:24.326Z,88.91
2023-05-18T14:46:04.173Z,89.01
2023-05-18T14:48:36.012Z,88.91
2023-05-18T14:51:03.738Z,88.96
2023-05-18T14:53:31.416Z,89.00
2023-05-18T14:55:59.546Z,89.15
2023-05-18T14:58:27.144Z,89.18
2023-05-18T15:00:54.664Z,89.30
2023-05-18T15:03:22.616Z,89.43
2023-05-18T15:05:51.148Z,89.24
2023-05-18T15:08:18.675Z,89.16
2023-05-18T15:10:46.219Z,89.21
2023-05-18T15:13:14.579Z,89.33
2023-05-18T15:15:42.284Z,89.34
2023-05-18T15:18:09.842Z,89.42
2023-05-18T15:20:39.223Z,89.57
2023-05-18T15:23:07.515Z,89.49
2023-05-18T15:25:35.009Z,89.35
2023-05-18T15:28:02.556Z,89.32
2023-05-18T15:30:30.276Z,89.38
2023-05-18T15:32:58.159Z,89.52
2023-05-18T15:35:25.881Z,89.32
2023-05-18T15:37:53.686Z,89.14
2023-05-18T15:40:21.191Z,89.33
2023-05-18T15:42:48.812Z,89.20
2023-05-18T15:45:16.350Z,89.27
2023-05-18T15:47:43.915Z,89.17
2023-05-18T15:50:13.310Z,88.97
2023-05-18T15:52:41.976Z,88.79
2023-05-18T15:55:09.712Z,88.93
2023-05-18T15:57:37.535Z,89.02
2023-05-18T16:00:05.158Z,88.72
2023-05-18T16:02:32.676Z,88.60
2023-05-18T16:05:00.594Z,88.38
2023-05-18T16:07:28.103Z,88.50
2023-05-18T16:09:55.923Z,88.45
2023-05-18T16:12:23.442Z,88.35
2023-05-18T16:14:51.829Z,88.37
2023-05-18T16:17:19.551Z,87.99
2023-05-18T16:19:47.412Z,87.82
2023-05-18T16:22:14.950Z,87.92
2023-05-18T16:24:43.353Z,88.16
2023-05-18T16:27:11.005Z,88.33
2023-05-18T16:29:38.491Z,88.29
2023-05-18T16:32:06.448Z,88.27
2023-05-18T16:34:34.275Z,88.14
2023-05-18T16:37:01.878Z,88.09
2023-05-18T16:39:29.851Z,88.08
2023-05-18T16:41:57.384Z,87.98
2023-05-18T16:44:24.891Z,88.18
2023-05-18T16:46:52.469Z,88.18
2023-05-18T16:49:20.756Z,88.07
2023-05-18T16:51:48.251Z,87.83
2023-05-18T16:54:15.736Z,87.90
2023-05-18T16:56:43.367Z,88.03
2023-05-18T16:59:10.836Z,88.06
2023-05-18T17:01:38.539Z,88.08
2023-05-18T17:04:06.549Z,88.12
2023-05-18T17:06:34.255Z,87.87
2023-05-18T17:09:02.652Z,88.00
2023-05-18T17:11:31.171Z,87.72
2023-05-18T17:13:59.944Z,88.45
2023-05-18T17:16:28.437Z,88.83
2023-05-18T17:18:57.720Z,87.62
2023-05-18T17:21:28.145Z,87.35
2023-05-18T17:23:55.809Z,87.59
2023-05-18T17:26:25.484Z,87.60
2023-05-18T17:28:53.098Z,87.41
2023-05-18T17:31:20.650Z,87.30
2023-05-18T17:33:48.343Z,87.30
2023-05-18T17:36:18.318Z,87.18
2023-05-18T17:38:46.909Z,87.06
2023-05-18T17:41:14.714Z,87.36
2023-05-18T17:43:42.321Z,87.42
2023-05-18T17:46:09.979Z,87.28
2023-05-18T17:48:37.586Z,87.11
2023-05-18T17:51:05.203Z,87.12
2023-05-18T17:53:32.805Z,87.17
2023-05-18T17:56:00.466Z,87.25
2023-05-18T17:58:28.107Z,87.39
2023-05-18T18:00:55.892Z,87.19
2023-05-18T18:03:23.568Z,87.19
2023-05-18T18:05:51.438Z,87.11
2023-05-18T18:08:19.025Z,87.06
2023-05-18T18:10:46.617Z,86.95
2023-05-18T18:13:14.149Z,87.11
2023-05-18T18:15:41.941Z,87.16
2023-05-18T18:18:09.513Z,87.19
2023-05-18T18:20:37.198Z,87.28
2023-05-18T18:23:04.710Z,87.40
2023-05-18T18:25:32.303Z,87.23
2023-05-18T18:28:00.166Z,87.27
2023-05-18T18:30:27.861Z,87.16
2023-05-18T18:32:55.546Z,87.19
2023-05-18T18:35:23.118Z,87.21
2023-05-18T18:37:50.631Z,87.32
2023-05-18T18:40:18.723Z,87.38
2023-05-18T18:42:47.951Z,87.63
2023-05-18T18:45:15.791Z,87.50
2023-05-18T18:47:43.441Z,87.51
2023-05-18T18:50:11.358Z,87.49
2023-05-18T18:52:39.186Z,87.50
2023-05-18T18:55:06.726Z,87.42
2023-05-18T18:57:34.272Z,87.51
2023-05-18T19:00:02.067Z,87.56
2023-05-18T19:02:29.699Z,87.40
2023-05-18T19:04:57.582Z,87.43
2023-05-18T19:07:25.140Z,87.61
2023-05-18T19:09:53.133Z,87.63
2023-05-18T19:12:20.632Z,87.72
2023-05-18T19:14:48.604Z,87.62
2023-05-18T19:17:16.266Z,87.43
2023-05-18T19:19:44.248Z,87.53
2023-05-18T19:22:11.825Z,87.64
2023-05-18T19:24:40.100Z,87.69
2023-05-18T19:27:07.577Z,87.72
2023-05-18T19:29:37.397Z,87.97
2023-05-18T19:32:05.102Z,87.87
2023-05-18T19:34:32.727Z,88.03
2023-05-18T19:37:00.509Z,88.08
2023-05-18T19:39:28.120Z,87.94
2023-05-18T19:41:55.820Z,88.00
2023-05-18T19:44:23.448Z,88.14
2023-05-18T19:46:51.033Z,88.20
2023-05-18T19:49:18.726Z,88.20
2023-05-18T19:51:46.250Z,88.22
2023-05-18T19:54:13.946Z,88.16
2023-05-18T19:56:41.724Z,88.16
2023-05-18T19:59:10.174Z,88.26
2023-05-18T20:01:37.961Z,88.42
2023-05-18T20:04:05.528Z,88.37
2023-05-18T20:06:33.920Z,88.43
2023-05-18T20:09:01.521Z,88.40
2023-05-18T20:11:29.035Z,88.36
2023-05-18T20:13:56.753Z,88.49
2023-05-18T20:16:26.421Z,88.38
2023-05-18T20:18:54.097Z,88.38
2023-05-18T20:21:21.807Z,88.42
2023-05-18T20:23:49.404Z,88.57
2023-05-18T20:26:17.097Z,88.64
2023-05-18T20:28:44.647Z,88.57
2023-05-18T20:31:12.511Z,88.59
2023-05-18T20:33:40.222Z,88.56
2023-05-18T20:36:08.979Z,88.71
2023-05-18T20:38:38.858Z,88.68
2023-05-18T20:41:09.662Z,88.60
2023-05-18T20:43:40.297Z,88.56
2023-05-18T20:46:08.129Z,88.62
2023-05-18T20:48:36.087Z,88.60
2023-05-18T20:51:03.671Z,88.60
2023-05-18T20:53:31.289Z,88.60
2023-05-18T20:56:01.218Z,88.62
2023-05-18T20:58:29.084Z,88.55
2023-05-18T21:00:56.608Z,88.60
2023-05-18T21:03:24.452Z,88.57
2023-05-18T21:05:52.006Z,88.37
2023-05-18T21:08:19.506Z,88.50
2023-05-18T21:10:47.012Z,88.50
2023-05-18T21:13:15.151Z,88.51
2023-05-18T21:15:42.782Z,88.50
2023-05-18T21:18:10.543Z,88.52
2023-05-18T21:20:38.271Z,88.67
2023-05-18T21:23:05.780Z,88.82
2023-05-18T21:25:33.358Z,88.86
2023-05-18T21:28:00.890Z,88.76
2023-05-18T21:30:28.402Z,88.70
2023-05-18T21:32:55.983Z,88.70
2023-05-18T21:35:23.631Z,88.66
2023-05-18T21:37:51.185Z,88.63
2023-05-18T21:40:18.726Z,88.63
2023-05-18T21:42:47.218Z,88.68
2023-05-18T21:45:14.810Z,88.64
2023-05-18T21:47:42.513Z,88.72
2023-05-18T21:50:10.085Z,88.79
2023-05-18T21:52:37.695Z,88.80
2023-05-18T21:55:05.216Z,88.80
2023-05-18T21:57:32.876Z,88.75
2023-05-18T22:00:00.863Z,88.77
2023-05-18T22:02:28.460Z,88.74
2023-05-18T22:04:56.298Z,88.72
2023-05-18T22:07:24.003Z,88.82
2023-05-18T22:09:53.288Z,88.90
2023-05-18T22:12:20.857Z,88.92
2023-05-18T22:14:48.524Z,88.85
2023-05-18T22:17:17.960Z,88.80
2023-05-18T22:19:45.721Z,88.79
2023-05-18T22:22:22.712Z,88.80
2023-05-18T22:24:56.608Z,88.71
2023-05-18T22:27:24.124Z,88.70
2023-05-18T22:29:51.862Z,88.75
2023-05-18T22:32:19.552Z,88.71
2023-05-18T22:34:47.208Z,88.61
2023-05-18T22:37:14.736Z,88.51
2023-05-18T22:39:42.291Z,88.49
2023-05-18T22:42:09.765Z,88.54
2023-05-18T22:44:37.310Z,88.60
2023-05-18T22:47:04.908Z,88.53
2023-05-18T22:49:32.698Z,88.51
2023-05-18T22:52:00.454Z,88.57
2023-05-18T22:54:28.024Z,88.51
2023-05-18T22:56:55.702Z,88.50
2023-05-18T22:59:23.351Z,88.43
2023-05-18T23:01:54.763Z,88.35
2023-05-18T23:04:22.336Z,88.40
2023-05-18T23:06:50.723Z,88.38
2023-05-18T23:09:18.571Z,88.34
2023-05-18T23:11:46.247Z,88.49
2023-05-18T23:14:14.249Z,88.50
2023-05-18T23:16:43.095Z,88.46
2023-05-18T23:19:12.356Z,88.53
2023-05-18T23:21:40.352Z,88.64
2023-05-18T23:24:12.386Z,88.67
2023-05-18T23:26:40.006Z,88.74
2023-05-18T23:29:07.576Z,88.68
2023-05-18T23:31:35.197Z,88.67
2023-05-18T23:34:03.909Z,88.73
2023-05-18T23:36:31.714Z,88.80
2023-05-18T23:39:00.027Z,88.80
2023-05-18T23:41:27.599Z,88.74
2023-05-18T23:43:55.153Z,88.61
2023-05-18T23:46:22.897Z,88.50
2023-05-18T23:48:52.303Z,88.49
2023-05-18T23:51:23.032Z,88.61
2023-05-18T23:53:50.613Z,88.79
2023-05-18T23:56:18.100Z,89.02
2023-05-18T23:58:45.883Z,89.10
